sensor_id;sensor_type;location;lat;lon;timestamp;P1;durP1;ratioP1;P2;durP2;ratioP2
55218;SDS011;65463;43.864;20.136;2023-06-04T00:01:54;135.73;;;32.83;;
55218;SDS011;65463;43.864;20.136;2023-06-04T00:04:20;89.05;;;33.28;;
55218;SDS011;65463;43.864;20.136;2023-06-04T00:06:48;87.22;;;32.38;;
55218;SDS011;65463;43.864;20.136;2023-06-04T00:09:14;102.78;;;31.55;;
55218;SDS011;65463;43.864;20.136;2023-06-04T00:11:40;77.78;;;27.88;;
55218;SDS011;65463;43.864;20.136;2023-06-04T00:14:06;129.50;;;28.33;;
55218;SDS011;65463;43.864;20.136;2023-06-04T00:16:33;75.90;;;27.20;;
55218;SDS011;65463;43.864;20.136;2023-06-04T00:19:01;66.90;;;25.45;;
55218;SDS011;65463;43.864;20.136;2023-06-04T00:21:28;64.53;;;23.00;;
55218;SDS011;65463;43.864;20.136;2023-06-04T00:23:54;54.28;;;20.08;;
55218;SDS011;65463;43.864;20.136;2023-06-04T00:26:20;40.53;;;18.52;;
55218;SDS011;65463;43.864;20.136;2023-06-04T00:28:46;28.13;;;12.73;;
55218;SDS011;65463;43.864;20.136;2023-06-04T00:31:12;18.08;;;10.23;;
55218;SDS011;65463;43.864;20.136;2023-06-04T00:33:39;18.25;;;9.13;;
55218;SDS011;65463;43.864;20.136;2023-06-04T00:36:05;28.23;;;9.35;;
55218;SDS011;65463;43.864;20.136;2023-06-04T00:38:31;21.42;;;10.05;;
55218;SDS011;65463;43.864;20.136;2023-06-04T00:40:58;79.43;;;12.15;;
55218;SDS011;65463;43.864;20.136;2023-06-04T00:43:24;65.80;;;14.43;;
55218;SDS011;65463;43.864;20.136;2023-06-04T00:45:53;75.78;;;16.30;;
55218;SDS011;65463;43.864;20.136;2023-06-04T00:48:19;58.13;;;15.85;;
55218;SDS011;65463;43.864;20.136;2023-06-04T00:50:47;67.15;;;17.17;;
55218;SDS011;65463;43.864;20.136;2023-06-04T00:53:13;70.18;;;15.85;;
55218;SDS011;65463;43.864;20.136;2023-06-04T00:55:39;65.82;;;15.93;;
55218;SDS011;65463;43.864;20.136;2023-06-04T00:58:06;48.63;;;15.52;;
55218;SDS011;65463;43.864;20.136;2023-06-04T01:00:34;88.65;;;16.55;;
55218;SDS011;65463;43.864;20.136;2023-06-04T01:03:02;101.10;;;14.07;;
55218;SDS011;65463;43.864;20.136;2023-06-04T01:08:00;38.47;;;13.75;;
55218;SDS011;65463;43.864;20.136;2023-06-04T01:10:26;56.78;;;14.80;;
55218;SDS011;65463;43.864;20.136;2023-06-04T01:12:52;58.00;;;14.15;;
55218;SDS011;65463;43.864;20.136;2023-06-04T01:15:19;41.42;;;13.85;;
55218;SDS011;65463;43.864;20.136;2023-06-04T01:17:46;40.05;;;13.25;;
55218;SDS011;65463;43.864;20.136;2023-06-04T01:20:36;45.53;;;12.75;;
55218;SDS011;65463;43.864;20.136;2023-06-04T01:25:49;54.83;;;12.95;;
55218;SDS011;65463;43.864;20.136;2023-06-04T01:28:15;43.70;;;12.73;;
55218;SDS011;65463;43.864;20.136;2023-06-04T01:30:44;74.68;;;12.73;;
55218;SDS011;65463;43.864;20.136;2023-06-04T01:33:16;35.53;;;12.52;;
55218;SDS011;65463;43.864;20.136;2023-06-04T01:35:42;35.53;;;12.80;;
55218;SDS011;65463;43.864;20.136;2023-06-04T01:38:09;34.97;;;13.02;;
55218;SDS011;65463;43.864;20.136;2023-06-04T01:40:35;54.30;;;13.65;;
55218;SDS011;65463;43.864;20.136;2023-06-04T01:43:02;40.08;;;13.35;;
55218;SDS011;65463;43.864;20.136;2023-06-04T01:45:28;39.67;;;12.75;;
55218;SDS011;65463;43.864;20.136;2023-06-04T01:47:55;52.97;;;13.25;;
55218;SDS011;65463;43.864;20.136;2023-06-04T01:50:21;28.20;;;12.15;;
55218;SDS011;65463;43.864;20.136;2023-06-04T01:52:48;42.33;;;11.82;;
55218;SDS011;65463;43.864;20.136;2023-06-04T01:55:15;23.83;;;9.65;;
55218;SDS011;65463;43.864;20.136;2023-06-04T01:57:42;57.97;;;10.63;;
55218;SDS011;65463;43.864;20.136;2023-06-04T02:00:09;40.75;;;10.88;;
55218;SDS011;65463;43.864;20.136;2023-06-04T02:02:37;50.50;;;12.50;;
55218;SDS011;65463;43.864;20.136;2023-06-04T02:05:04;41.70;;;11.07;;
55218;SDS011;65463;43.864;20.136;2023-06-04T02:07:34;50.08;;;11.30;;
55218;SDS011;65463;43.864;20.136;2023-06-04T02:10:03;32.53;;;10.37;;
55218;SDS011;65463;43.864;20.136;2023-06-04T02:12:29;48.78;;;11.75;;
55218;SDS011;65463;43.864;20.136;2023-06-04T02:14:55;38.25;;;11.38;;
55218;SDS011;65463;43.864;20.136;2023-06-04T02:17:21;27.10;;;11.43;;
55218;SDS011;65463;43.864;20.136;2023-06-04T02:19:48;22.63;;;11.07;;
55218;SDS011;65463;43.864;20.136;2023-06-04T02:22:17;29.67;;;11.25;;
55218;SDS011;65463;43.864;20.136;2023-06-04T02:24:44;52.42;;;11.80;;
55218;SDS011;65463;43.864;20.136;2023-06-04T02:27:10;33.00;;;11.10;;
55218;SDS011;65463;43.864;20.136;2023-06-04T02:29:37;23.33;;;10.55;;
55218;SDS011;65463;43.864;20.136;2023-06-04T02:32:04;27.33;;;11.05;;
55218;SDS011;65463;43.864;20.136;2023-06-04T02:34:30;36.65;;;12.60;;
55218;SDS011;65463;43.864;20.136;2023-06-04T02:36:56;46.35;;;12.45;;
55218;SDS011;65463;43.864;20.136;2023-06-04T02:39:23;38.78;;;13.23;;
55218;SDS011;65463;43.864;20.136;2023-06-04T02:41:49;35.80;;;13.50;;
55218;SDS011;65463;43.864;20.136;2023-06-04T02:44:16;29.10;;;12.30;;
55218;SDS011;65463;43.864;20.136;2023-06-04T02:46:42;27.58;;;13.23;;
55218;SDS011;65463;43.864;20.136;2023-06-04T02:49:08;22.52;;;11.45;;
55218;SDS011;65463;43.864;20.136;2023-06-04T02:54:04;23.73;;;11.55;;
55218;SDS011;65463;43.864;20.136;2023-06-04T02:56:30;27.17;;;12.30;;
55218;SDS011;65463;43.864;20.136;2023-06-04T02:58:57;37.53;;;14.57;;
55218;SDS011;65463;43.864;20.136;2023-06-04T03:01:23;26.02;;;12.85;;
55218;SDS011;65463;43.864;20.136;2023-06-04T03:03:50;28.90;;;14.02;;
55218;SDS011;65463;43.864;20.136;2023-06-04T03:06:17;27.70;;;13.25;;
55218;SDS011;65463;43.864;20.136;2023-06-04T03:08:45;23.15;;;11.88;;
55218;SDS011;65463;43.864;20.136;2023-06-04T03:11:11;20.88;;;10.52;;
55218;SDS011;65463;43.864;20.136;2023-06-04T03:13:37;20.38;;;10.32;;
55218;SDS011;65463;43.864;20.136;2023-06-04T03:16:04;22.65;;;11.00;;
55218;SDS011;65463;43.864;20.136;2023-06-04T03:18:39;27.80;;;11.50;;
55218;SDS011;65463;43.864;20.136;2023-06-04T03:21:05;21.40;;;11.18;;
55218;SDS011;65463;43.864;20.136;2023-06-04T03:23:34;21.85;;;11.25;;
55218;SDS011;65463;43.864;20.136;2023-06-04T03:26:01;21.50;;;11.75;;
55218;SDS011;65463;43.864;20.136;2023-06-04T03:28:27;20.42;;;11.13;;
55218;SDS011;65463;43.864;20.136;2023-06-04T03:30:54;20.27;;;11.40;;
55218;SDS011;65463;43.864;20.136;2023-06-04T03:33:20;22.10;;;12.35;;
55218;SDS011;65463;43.864;20.136;2023-06-04T03:35:46;21.33;;;10.18;;
55218;SDS011;65463;43.864;20.136;2023-06-04T03:38:14;22.48;;;11.45;;
55218;SDS011;65463;43.864;20.136;2023-06-04T03:40:43;19.87;;;11.53;;
55218;SDS011;65463;43.864;20.136;2023-06-04T03:43:09;19.13;;;11.13;;
55218;SDS011;65463;43.864;20.136;2023-06-04T03:45:35;23.15;;;11.55;;
55218;SDS011;65463;43.864;20.136;2023-06-04T03:48:01;18.85;;;11.98;;
55218;SDS011;65463;43.864;20.136;2023-06-04T03:50:28;19.27;;;11.18;;
55218;SDS011;65463;43.864;20.136;2023-06-04T03:52:54;19.23;;;11.23;;
55218;SDS011;65463;43.864;20.136;2023-06-04T03:55:20;17.38;;;11.00;;
55218;SDS011;65463;43.864;20.136;2023-06-04T03:57:46;18.90;;;11.35;;
55218;SDS011;65463;43.864;20.136;2023-06-04T04:00:12;18.42;;;10.98;;
55218;SDS011;65463;43.864;20.136;2023-06-04T04:02:39;19.55;;;10.02;;
55218;SDS011;65463;43.864;20.136;2023-06-04T04:05:06;20.80;;;10.02;;
55218;SDS011;65463;43.864;20.136;2023-06-04T04:07:32;17.77;;;10.13;;
55218;SDS011;65463;43.864;20.136;2023-06-04T04:09:58;18.35;;;9.98;;
55218;SDS011;65463;43.864;20.136;2023-06-04T04:12:24;15.63;;;9.85;;
55218;SDS011;65463;43.864;20.136;2023-06-04T04:14:51;15.57;;;9.55;;
55218;SDS011;65463;43.864;20.136;2023-06-04T04:17:17;17.85;;;9.50;;
55218;SDS011;65463;43.864;20.136;2023-06-04T04:19:43;20.85;;;9.10;;
55218;SDS011;65463;43.864;20.136;2023-06-04T04:22:12;16.48;;;9.55;;
55218;SDS011;65463;43.864;20.136;2023-06-04T04:24:42;18.13;;;10.27;;
55218;SDS011;65463;43.864;20.136;2023-06-04T04:27:08;17.92;;;10.23;;
55218;SDS011;65463;43.864;20.136;2023-06-04T04:29:36;21.60;;;11.30;;
55218;SDS011;65463;43.864;20.136;2023-06-04T04:32:02;19.13;;;10.63;;
55218;SDS011;65463;43.864;20.136;2023-06-04T04:34:35;20.83;;;11.15;;
55218;SDS011;65463;43.864;20.136;2023-06-04T04:37:02;25.70;;;12.50;;
55218;SDS011;65463;43.864;20.136;2023-06-04T04:39:29;24.38;;;11.48;;
55218;SDS011;65463;43.864;20.136;2023-06-04T04:41:55;20.80;;;10.85;;
55218;SDS011;65463;43.864;20.136;2023-06-04T04:44:21;23.35;;;12.45;;
55218;SDS011;65463;43.864;20.136;2023-06-04T04:46:47;18.70;;;10.73;;
55218;SDS011;65463;43.864;20.136;2023-06-04T04:49:14;16.40;;;9.60;;
55218;SDS011;65463;43.864;20.136;2023-06-04T04:51:40;18.20;;;9.82;;
55218;SDS011;65463;43.864;20.136;2023-06-04T04:54:06;18.17;;;10.57;;
55218;SDS011;65463;43.864;20.136;2023-06-04T04:56:33;16.67;;;9.88;;
55218;SDS011;65463;43.864;20.136;2023-06-04T04:59:00;17.83;;;10.13;;
55218;SDS011;65463;43.864;20.136;2023-06-04T05:01:26;18.85;;;11.07;;
55218;SDS011;65463;43.864;20.136;2023-06-04T05:03:53;20.00;;;10.55;;
55218;SDS011;65463;43.864;20.136;2023-06-04T05:06:19;20.42;;;10.65;;
55218;SDS011;65463;43.864;20.136;2023-06-04T05:08:46;22.50;;;11.18;;
55218;SDS011;65463;43.864;20.136;2023-06-04T05:11:12;18.67;;;10.40;;
55218;SDS011;65463;43.864;20.136;2023-06-04T05:13:38;18.13;;;9.55;;
55218;SDS011;65463;43.864;20.136;2023-06-04T05:16:06;15.77;;;9.07;;
55218;SDS011;65463;43.864;20.136;2023-06-04T05:18:33;14.98;;;8.45;;
55218;SDS011;65463;43.864;20.136;2023-06-04T05:21:00;15.15;;;9.65;;
55218;SDS011;65463;43.864;20.136;2023-06-04T05:23:27;14.50;;;9.00;;
55218;SDS011;65463;43.864;20.136;2023-06-04T05:25:55;13.38;;;8.50;;
55218;SDS011;65463;43.864;20.136;2023-06-04T05:28:21;13.23;;;9.52;;
55218;SDS011;65463;43.864;20.136;2023-06-04T05:30:51;15.93;;;9.17;;
55218;SDS011;65463;43.864;20.136;2023-06-04T05:33:18;14.68;;;8.90;;
55218;SDS011;65463;43.864;20.136;2023-06-04T05:35:46;14.35;;;9.63;;
55218;SDS011;65463;43.864;20.136;2023-06-04T05:38:13;21.48;;;10.32;;
55218;SDS011;65463;43.864;20.136;2023-06-04T05:40:43;13.88;;;8.88;;
55218;SDS011;65463;43.864;20.136;2023-06-04T05:43:10;14.63;;;9.30;;
55218;SDS011;65463;43.864;20.136;2023-06-04T05:45:36;18.05;;;11.20;;
55218;SDS011;65463;43.864;20.136;2023-06-04T05:48:03;16.25;;;11.15;;
55218;SDS011;65463;43.864;20.136;2023-06-04T05:50:29;15.73;;;9.48;;
55218;SDS011;65463;43.864;20.136;2023-06-04T05:52:55;18.10;;;11.20;;
55218;SDS011;65463;43.864;20.136;2023-06-04T05:55:22;14.80;;;9.35;;
55218;SDS011;65463;43.864;20.136;2023-06-04T05:57:48;14.85;;;8.95;;
55218;SDS011;65463;43.864;20.136;2023-06-04T06:00:17;14.88;;;9.30;;
55218;SDS011;65463;43.864;20.136;2023-06-04T06:02:43;16.15;;;11.43;;
55218;SDS011;65463;43.864;20.136;2023-06-04T06:05:10;14.57;;;9.15;;
55218;SDS011;65463;43.864;20.136;2023-06-04T06:07:36;19.77;;;11.20;;
55218;SDS011;65463;43.864;20.136;2023-06-04T06:10:03;14.52;;;9.95;;
55218;SDS011;65463;43.864;20.136;2023-06-04T06:12:30;12.70;;;9.15;;
55218;SDS011;65463;43.864;20.136;2023-06-04T06:14:56;20.00;;;11.23;;
55218;SDS011;65463;43.864;20.136;2023-06-04T06:17:22;15.63;;;10.02;;
55218;SDS011;65463;43.864;20.136;2023-06-04T06:19:49;18.48;;;10.93;;
55218;SDS011;65463;43.864;20.136;2023-06-04T06:22:15;15.05;;;9.95;;
55218;SDS011;65463;43.864;20.136;2023-06-04T06:24:41;17.55;;;10.88;;
55218;SDS011;65463;43.864;20.136;2023-06-04T06:27:07;17.73;;;10.93;;
55218;SDS011;65463;43.864;20.136;2023-06-04T06:29:33;12.95;;;9.60;;
55218;SDS011;65463;43.864;20.136;2023-06-04T06:31:59;13.73;;;8.75;;
55218;SDS011;65463;43.864;20.136;2023-06-04T06:34:26;15.25;;;10.52;;
55218;SDS011;65463;43.864;20.136;2023-06-04T06:36:52;11.75;;;8.55;;
55218;SDS011;65463;43.864;20.136;2023-06-04T06:39:18;12.80;;;9.73;;
55218;SDS011;65463;43.864;20.136;2023-06-04T06:41:45;16.90;;;12.68;;
55218;SDS011;65463;43.864;20.136;2023-06-04T06:44:11;18.48;;;12.40;;
55218;SDS011;65463;43.864;20.136;2023-06-04T06:46:37;27.17;;;14.93;;
55218;SDS011;65463;43.864;20.136;2023-06-04T06:49:06;27.27;;;15.60;;
55218;SDS011;65463;43.864;20.136;2023-06-04T06:51:32;29.23;;;15.90;;
55218;SDS011;65463;43.864;20.136;2023-06-04T06:53:58;31.23;;;19.17;;
55218;SDS011;65463;43.864;20.136;2023-06-04T06:56:24;31.02;;;19.50;;
55218;SDS011;65463;43.864;20.136;2023-06-04T06:58:51;26.33;;;17.90;;
55218;SDS011;65463;43.864;20.136;2023-06-04T07:01:17;24.15;;;16.15;;
55218;SDS011;65463;43.864;20.136;2023-06-04T07:03:43;26.52;;;17.60;;
55218;SDS011;65463;43.864;20.136;2023-06-04T07:06:09;25.08;;;16.00;;
55218;SDS011;65463;43.864;20.136;2023-06-04T07:08:35;43.00;;;24.30;;
55218;SDS011;65463;43.864;20.136;2023-06-04T07:11:02;32.40;;;21.23;;
55218;SDS011;65463;43.864;20.136;2023-06-04T07:13:28;34.63;;;20.80;;
55218;SDS011;65463;43.864;20.136;2023-06-04T07:15:58;26.10;;;17.90;;
55218;SDS011;65463;43.864;20.136;2023-06-04T07:18:24;33.60;;;20.92;;
55218;SDS011;65463;43.864;20.136;2023-06-04T07:20:50;25.67;;;17.33;;
55218;SDS011;65463;43.864;20.136;2023-06-04T07:23:17;31.73;;;18.00;;
55218;SDS011;65463;43.864;20.136;2023-06-04T07:25:44;35.17;;;23.38;;
55218;SDS011;65463;43.864;20.136;2023-06-04T07:28:10;41.35;;;24.17;;
55218;SDS011;65463;43.864;20.136;2023-06-04T07:30:37;48.45;;;31.30;;
55218;SDS011;65463;43.864;20.136;2023-06-04T07:33:04;36.40;;;24.45;;
55218;SDS011;65463;43.864;20.136;2023-06-04T07:35:31;54.33;;;34.78;;
55218;SDS011;65463;43.864;20.136;2023-06-04T07:38:03;45.42;;;28.85;;
55218;SDS011;65463;43.864;20.136;2023-06-04T07:40:29;58.00;;;35.33;;
55218;SDS011;65463;43.864;20.136;2023-06-04T07:42:55;48.45;;;32.83;;
55218;SDS011;65463;43.864;20.136;2023-06-04T07:45:24;70.13;;;46.00;;
55218;SDS011;65463;43.864;20.136;2023-06-04T07:47:50;48.90;;;31.52;;
55218;SDS011;65463;43.864;20.136;2023-06-04T07:50:16;43.80;;;28.63;;
55218;SDS011;65463;43.864;20.136;2023-06-04T07:52:42;42.10;;;27.70;;
55218;SDS011;65463;43.864;20.136;2023-06-04T07:55:11;44.03;;;29.23;;
55218;SDS011;65463;43.864;20.136;2023-06-04T07:57:37;37.92;;;25.58;;
55218;SDS011;65463;43.864;20.136;2023-06-04T08:00:03;45.95;;;29.65;;
55218;SDS011;65463;43.864;20.136;2023-06-04T08:02:30;39.10;;;25.25;;
55218;SDS011;65463;43.864;20.136;2023-06-04T08:04:56;40.28;;;25.70;;
55218;SDS011;65463;43.864;20.136;2023-06-04T08:07:23;50.08;;;33.63;;
55218;SDS011;65463;43.864;20.136;2023-06-04T08:09:49;38.35;;;25.45;;
55218;SDS011;65463;43.864;20.136;2023-06-04T08:12:15;42.80;;;26.58;;
55218;SDS011;65463;43.864;20.136;2023-06-04T08:14:42;44.75;;;24.45;;
55218;SDS011;65463;43.864;20.136;2023-06-04T08:17:08;41.10;;;21.30;;
55218;SDS011;65463;43.864;20.136;2023-06-04T08:19:34;37.13;;;20.88;;
55218;SDS011;65463;43.864;20.136;2023-06-04T08:22:01;45.38;;;29.02;;
55218;SDS011;65463;43.864;20.136;2023-06-04T08:24:27;32.10;;;19.90;;
55218;SDS011;65463;43.864;20.136;2023-06-04T08:26:53;37.78;;;21.75;;
55218;SDS011;65463;43.864;20.136;2023-06-04T08:29:21;32.65;;;16.40;;
55218;SDS011;65463;43.864;20.136;2023-06-04T08:31:47;29.08;;;17.48;;
55218;SDS011;65463;43.864;20.136;2023-06-04T08:34:14;30.88;;;17.13;;
55218;SDS011;65463;43.864;20.136;2023-06-04T08:36:40;28.73;;;18.17;;
55218;SDS011;65463;43.864;20.136;2023-06-04T08:39:06;32.80;;;20.88;;
55218;SDS011;65463;43.864;20.136;2023-06-04T08:41:54;29.88;;;17.13;;
55218;SDS011;65463;43.864;20.136;2023-06-04T08:44:21;31.75;;;20.77;;
55218;SDS011;65463;43.864;20.136;2023-06-04T08:46:51;34.80;;;24.27;;
55218;SDS011;65463;43.864;20.136;2023-06-04T08:49:20;16.88;;;11.90;;
55218;SDS011;65463;43.864;20.136;2023-06-04T08:51:47;21.15;;;14.77;;
55218;SDS011;65463;43.864;20.136;2023-06-04T08:54:13;55.55;;;41.38;;
55218;SDS011;65463;43.864;20.136;2023-06-04T08:56:40;15.57;;;10.48;;
55218;SDS011;65463;43.864;20.136;2023-06-04T08:59:07;9.75;;;7.38;;
55218;SDS011;65463;43.864;20.136;2023-06-04T09:01:35;16.45;;;9.95;;
55218;SDS011;65463;43.864;20.136;2023-06-04T09:04:05;9.00;;;6.43;;
55218;SDS011;65463;43.864;20.136;2023-06-04T09:06:34;7.95;;;4.90;;
55218;SDS011;65463;43.864;20.136;2023-06-04T09:09:02;4.93;;;4.25;;
55218;SDS011;65463;43.864;20.136;2023-06-04T09:11:37;8.98;;;6.18;;
55218;SDS011;65463;43.864;20.136;2023-06-04T09:14:07;22.05;;;12.82;;
55218;SDS011;65463;43.864;20.136;2023-06-04T09:16:42;6.60;;;4.20;;
55218;SDS011;65463;43.864;20.136;2023-06-04T09:19:08;12.73;;;8.20;;
55218;SDS011;65463;43.864;20.136;2023-06-04T09:21:45;19.40;;;12.55;;
55218;SDS011;65463;43.864;20.136;2023-06-04T09:24:11;5.97;;;3.70;;
55218;SDS011;65463;43.864;20.136;2023-06-04T09:26:37;7.03;;;3.70;;
55218;SDS011;65463;43.864;20.136;2023-06-04T09:29:03;8.43;;;3.92;;
55218;SDS011;65463;43.864;20.136;2023-06-04T09:31:31;5.03;;;3.40;;
55218;SDS011;65463;43.864;20.136;2023-06-04T09:34:02;3.97;;;3.30;;
55218;SDS011;65463;43.864;20.136;2023-06-04T09:36:32;10.30;;;8.25;;
55218;SDS011;65463;43.864;20.136;2023-06-04T09:38:58;4.43;;;2.67;;
55218;SDS011;65463;43.864;20.136;2023-06-04T09:41:24;6.30;;;4.07;;
55218;SDS011;65463;43.864;20.136;2023-06-04T09:43:58;6.32;;;3.83;;
55218;SDS011;65463;43.864;20.136;2023-06-04T09:46:27;5.00;;;3.95;;
55218;SDS011;65463;43.864;20.136;2023-06-04T09:49:03;5.00;;;2.35;;
55218;SDS011;65463;43.864;20.136;2023-06-04T09:51:30;3.47;;;2.58;;
55218;SDS011;65463;43.864;20.136;2023-06-04T09:54:03;3.65;;;2.47;;
55218;SDS011;65463;43.864;20.136;2023-06-04T09:56:29;4.65;;;2.58;;
55218;SDS011;65463;43.864;20.136;2023-06-04T09:58:57;6.20;;;3.72;;
55218;SDS011;65463;43.864;20.136;2023-06-04T10:01:26;70.57;;;49.85;;
55218;SDS011;65463;43.864;20.136;2023-06-04T10:03:53;7.95;;;3.33;;
55218;SDS011;65463;43.864;20.136;2023-06-04T10:06:21;3.60;;;2.58;;
55218;SDS011;65463;43.864;20.136;2023-06-04T10:08:50;3.78;;;2.20;;
55218;SDS011;65463;43.864;20.136;2023-06-04T10:11:22;6.10;;;3.20;;
55218;SDS011;65463;43.864;20.136;2023-06-04T10:14:00;5.57;;;2.70;;
55218;SDS011;65463;43.864;20.136;2023-06-04T10:16:31;3.75;;;2.47;;
55218;SDS011;65463;43.864;20.136;2023-06-04T10:18:58;4.28;;;2.10;;
55218;SDS011;65463;43.864;20.136;2023-06-04T10:21:26;7.00;;;4.22;;
55218;SDS011;65463;43.864;20.136;2023-06-04T10:23:53;4.43;;;2.50;;
55218;SDS011;65463;43.864;20.136;2023-06-04T10:26:19;3.22;;;2.30;;
55218;SDS011;65463;43.864;20.136;2023-06-04T10:28:44;4.50;;;2.10;;
55218;SDS011;65463;43.864;20.136;2023-06-04T10:31:10;6.20;;;2.20;;
55218;SDS011;65463;43.864;20.136;2023-06-04T10:33:37;2.83;;;2.20;;
55218;SDS011;65463;43.864;20.136;2023-06-04T10:36:16;5.03;;;2.50;;
55218;SDS011;65463;43.864;20.136;2023-06-04T10:38:48;7.45;;;2.50;;
55218;SDS011;65463;43.864;20.136;2023-06-04T10:41:16;3.90;;;2.30;;
55218;SDS011;65463;43.864;20.136;2023-06-04T10:43:43;3.17;;;2.30;;
55218;SDS011;65463;43.864;20.136;2023-06-04T10:46:14;3.30;;;2.40;;
55218;SDS011;65463;43.864;20.136;2023-06-04T10:48:47;4.28;;;2.30;;
55218;SDS011;65463;43.864;20.136;2023-06-04T10:51:28;2.83;;;2.17;;
55218;SDS011;65463;43.864;20.136;2023-06-04T10:53:59;5.70;;;2.00;;
55218;SDS011;65463;43.864;20.136;2023-06-04T10:56:30;3.75;;;2.13;;
55218;SDS011;65463;43.864;20.136;2023-06-04T10:59:15;3.08;;;2.10;;
55218;SDS011;65463;43.864;20.136;2023-06-04T11:01:42;4.25;;;2.28;;
55218;SDS011;65463;43.864;20.136;2023-06-04T11:07:06;3.78;;;2.10;;
55218;SDS011;65463;43.864;20.136;2023-06-04T11:09:48;2.60;;;1.92;;
55218;SDS011;65463;43.864;20.136;2023-06-04T11:12:14;2.60;;;1.90;;
55218;SDS011;65463;43.864;20.136;2023-06-04T11:14:40;4.65;;;2.20;;
55218;SDS011;65463;43.864;20.136;2023-06-04T11:17:12;5.03;;;2.00;;
55218;SDS011;65463;43.864;20.136;2023-06-04T11:19:39;4.50;;;2.05;;
55218;SDS011;65463;43.864;20.136;2023-06-04T11:22:05;5.90;;;3.28;;
55218;SDS011;65463;43.864;20.136;2023-06-04T11:24:33;4.43;;;2.45;;
55218;SDS011;65463;43.864;20.136;2023-06-04T11:26:58;5.25;;;2.17;;
55218;SDS011;65463;43.864;20.136;2023-06-04T11:29:24;4.95;;;2.10;;
55218;SDS011;65463;43.864;20.136;2023-06-04T11:31:50;5.28;;;2.10;;
55218;SDS011;65463;43.864;20.136;2023-06-04T11:34:29;3.10;;;1.90;;
55218;SDS011;65463;43.864;20.136;2023-06-04T11:37:06;3.85;;;2.00;;
55218;SDS011;65463;43.864;20.136;2023-06-04T11:39:34;4.47;;;1.90;;
55218;SDS011;65463;43.864;20.136;2023-06-04T11:42:06;4.20;;;2.00;;
55218;SDS011;65463;43.864;20.136;2023-06-04T11:44:32;2.53;;;1.75;;
55218;SDS011;65463;43.864;20.136;2023-06-04T11:46:59;2.42;;;1.63;;
55218;SDS011;65463;43.864;20.136;2023-06-04T11:49:25;3.45;;;1.90;;
55218;SDS011;65463;43.864;20.136;2023-06-04T11:51:52;2.40;;;1.83;;
55218;SDS011;65463;43.864;20.136;2023-06-04T11:54:19;2.65;;;2.00;;
55218;SDS011;65463;43.864;20.136;2023-06-04T11:56:48;4.53;;;1.70;;
55218;SDS011;65463;43.864;20.136;2023-06-04T11:59:15;5.15;;;2.08;;
55218;SDS011;65463;43.864;20.136;2023-06-04T12:01:45;5.13;;;1.90;;
55218;SDS011;65463;43.864;20.136;2023-06-04T12:04:16;4.95;;;2.08;;
55218;SDS011;65463;43.864;20.136;2023-06-04T12:06:52;3.38;;;1.92;;
55218;SDS011;65463;43.864;20.136;2023-06-04T12:09:32;2.58;;;1.77;;
55218;SDS011;65463;43.864;20.136;2023-06-04T12:12:05;3.80;;;1.70;;
55218;SDS011;65463;43.864;20.136;2023-06-04T12:14:34;2.15;;;1.70;;
55218;SDS011;65463;43.864;20.136;2023-06-04T12:17:06;4.18;;;1.70;;
55218;SDS011;65463;43.864;20.136;2023-06-04T12:19:33;2.25;;;1.70;;
55218;SDS011;65463;43.864;20.136;2023-06-04T12:22:13;2.25;;;1.50;;
55218;SDS011;65463;43.864;20.136;2023-06-04T12:24:46;4.20;;;1.70;;
55218;SDS011;65463;43.864;20.136;2023-06-04T12:27:19;2.08;;;1.38;;
55218;SDS011;65463;43.864;20.136;2023-06-04T12:29:58;10.90;;;1.85;;
55218;SDS011;65463;43.864;20.136;2023-06-04T12:32:25;2.65;;;1.67;;
55218;SDS011;65463;43.864;20.136;2023-06-04T12:34:52;2.88;;;1.70;;
55218;SDS011;65463;43.864;20.136;2023-06-04T12:37:18;10.60;;;1.63;;
55218;SDS011;65463;43.864;20.136;2023-06-04T12:39:43;5.07;;;1.60;;
55218;SDS011;65463;43.864;20.136;2023-06-04T12:42:09;2.28;;;1.73;;
55218;SDS011;65463;43.864;20.136;2023-06-04T12:44:35;4.00;;;1.70;;
55218;SDS011;65463;43.864;20.136;2023-06-04T12:47:02;2.40;;;1.67;;
55218;SDS011;65463;43.864;20.136;2023-06-04T12:49:28;6.55;;;2.08;;
55218;SDS011;65463;43.864;20.136;2023-06-04T12:51:54;3.75;;;1.90;;
55218;SDS011;65463;43.864;20.136;2023-06-04T12:54:20;4.05;;;1.70;;
55218;SDS011;65463;43.864;20.136;2023-06-04T12:56:46;2.97;;;1.70;;
55218;SDS011;65463;43.864;20.136;2023-06-04T12:59:12;2.70;;;1.63;;
55218;SDS011;65463;43.864;20.136;2023-06-04T13:01:38;2.95;;;1.88;;
55218;SDS011;65463;43.864;20.136;2023-06-04T13:04:04;4.78;;;2.50;;
55218;SDS011;65463;43.864;20.136;2023-06-04T13:06:31;2.78;;;1.85;;
55218;SDS011;65463;43.864;20.136;2023-06-04T13:08:59;2.70;;;1.80;;
55218;SDS011;65463;43.864;20.136;2023-06-04T13:11:25;3.78;;;2.05;;
55218;SDS011;65463;43.864;20.136;2023-06-04T13:13:51;3.08;;;1.80;;
55218;SDS011;65463;43.864;20.136;2023-06-04T13:16:17;5.72;;;2.45;;
55218;SDS011;65463;43.864;20.136;2023-06-04T13:18:43;4.35;;;1.90;;
55218;SDS011;65463;43.864;20.136;2023-06-04T13:21:09;2.75;;;1.52;;
55218;SDS011;65463;43.864;20.136;2023-06-04T13:23:36;2.15;;;1.75;;
55218;SDS011;65463;43.864;20.136;2023-06-04T13:26:02;3.80;;;1.70;;
55218;SDS011;65463;43.864;20.136;2023-06-04T13:28:28;8.98;;;2.15;;
55218;SDS011;65463;43.864;20.136;2023-06-04T13:30:55;3.45;;;1.80;;
55218;SDS011;65463;43.864;20.136;2023-06-04T13:33:21;2.85;;;1.73;;
55218;SDS011;65463;43.864;20.136;2023-06-04T13:35:47;2.40;;;1.70;;
55218;SDS011;65463;43.864;20.136;2023-06-04T13:38:15;3.95;;;1.60;;
55218;SDS011;65463;43.864;20.136;2023-06-04T13:40:41;4.22;;;1.60;;
55218;SDS011;65463;43.864;20.136;2023-06-04T13:43:08;4.60;;;2.00;;
55218;SDS011;65463;43.864;20.136;2023-06-04T13:45:34;4.45;;;1.77;;
55218;SDS011;65463;43.864;20.136;2023-06-04T13:48:00;5.95;;;1.92;;
55218;SDS011;65463;43.864;20.136;2023-06-04T13:50:33;4.55;;;1.58;;
55218;SDS011;65463;43.864;20.136;2023-06-04T13:53:01;4.43;;;1.60;;
55218;SDS011;65463;43.864;20.136;2023-06-04T13:55:27;3.88;;;2.00;;
55218;SDS011;65463;43.864;20.136;2023-06-04T13:57:52;4.78;;;2.53;;
55218;SDS011;65463;43.864;20.136;2023-06-04T14:00:18;4.55;;;2.40;;
55218;SDS011;65463;43.864;20.136;2023-06-04T14:02:45;4.35;;;2.08;;
55218;SDS011;65463;43.864;20.136;2023-06-04T14:05:12;4.38;;;2.20;;
55218;SDS011;65463;43.864;20.136;2023-06-04T14:07:37;2.65;;;1.85;;
55218;SDS011;65463;43.864;20.136;2023-06-04T14:10:03;2.72;;;1.70;;
55218;SDS011;65463;43.864;20.136;2023-06-04T14:12:29;4.95;;;1.80;;
55218;SDS011;65463;43.864;20.136;2023-06-04T14:14:56;3.97;;;2.20;;
55218;SDS011;65463;43.864;20.136;2023-06-04T14:17:22;5.03;;;2.05;;
55218;SDS011;65463;43.864;20.136;2023-06-04T14:19:48;2.83;;;1.63;;
55218;SDS011;65463;43.864;20.136;2023-06-04T14:22:14;2.35;;;1.65;;
55218;SDS011;65463;43.864;20.136;2023-06-04T14:24:40;2.83;;;1.77;;
55218;SDS011;65463;43.864;20.136;2023-06-04T14:27:07;4.40;;;2.15;;
55218;SDS011;65463;43.864;20.136;2023-06-04T14:29:34;3.72;;;2.10;;
55218;SDS011;65463;43.864;20.136;2023-06-04T14:32:01;6.75;;;1.80;;